Time;durP1;ratioP1;P1;durP2;ratioP2;P2;SDS_P1;SDS_P2;PMS_P1;PMS_P2;Temp;Humidity;BMP_temperature;BMP_pressure;BME280_temperature;BME280_humidity;BME280_pressure;Samples;Min_cycle;Max_cycle;Signal;HPM_P1;HPM_P2
2021/09/14 00:00:14;;;;;;;11.07;10.03;;;16.00;99.90;;;;;;4994333;28;20527;-80
2021/09/14 00:02:40;;;;;;;10.17;9.17;;;16.00;99.90;;;;;;4994956;28;20601;-80
2021/09/14 00:05:08;;;;;;;12.30;10.00;;;16.00;99.90;;;;;;4994680;28;20464;-79
2021/09/14 00:07:35;;;;;;;10.20;9.32;;;16.00;99.90;;;;;;4994915;28;20394;-80
2021/09/14 00:10:02;;;;;;;10.40;9.40;;;16.00;99.90;;;;;;4993932;28;20324;-79
2021/09/14 00:12:30;;;;;;;10.43;9.40;;;15.90;99.90;;;;;;4994701;28;20460;-79
2021/09/14 00:14:57;;;;;;;13.77;9.37;;;15.90;99.90;;;;;;4994776;28;20456;-80
2021/09/14 00:17:24;;;;;;;11.65;10.02;;;15.90;99.90;;;;;;4994777;28;20483;-79
2021/09/14 00:19:51;;;;;;;13.43;9.33;;;15.80;99.90;;;;;;4994418;28;20293;-79
2021/09/14 00:22:18;;;;;;;10.23;9.40;;;15.80;99.90;;;;;;4994565;28;20547;-79
2021/09/14 00:24:45;;;;;;;10.57;9.57;;;15.80;99.90;;;;;;4994477;28;20539;-80
2021/09/14 00:27:11;;;;;;;10.67;9.67;;;15.80;99.90;;;;;;4994986;28;20252;-80
2021/09/14 00:29:40;;;;;;;11.70;9.90;;;15.80;99.90;;;;;;4994824;28;21008;-80
2021/09/14 00:32:07;;;;;;;11.37;10.27;;;15.80;99.90;;;;;;4994396;28;20506;-78
2021/09/14 00:34:34;;;;;;;11.03;9.93;;;15.70;99.90;;;;;;4994006;28;20540;-78
2021/09/14 00:37:01;;;;;;;11.03;9.93;;;15.70;99.90;;;;;;4994013;28;20440;-79
2021/09/14 00:39:28;;;;;;;11.77;10.57;;;15.70;99.90;;;;;;4993796;28;20457;-78
2021/09/14 00:41:55;;;;;;;11.97;10.73;;;15.70;99.90;;;;;;4994653;28;20964;-78
2021/09/14 00:44:22;;;;;;;11.63;10.43;;;15.70;99.90;;;;;;4994321;28;20509;-79
2021/09/14 00:46:50;;;;;;;11.97;10.73;;;15.70;99.90;;;;;;4993664;28;20494;-78
2021/09/14 00:49:17;;;;;;;11.70;10.50;;;15.60;99.90;;;;;;4993431;28;20952;-79
2021/09/14 00:51:44;;;;;;;13.07;9.90;;;15.60;99.90;;;;;;4994283;28;20934;-79
2021/09/14 00:54:14;;;;;;;10.82;9.70;;;15.60;99.90;;;;;;4993960;28;20456;-79
2021/09/14 00:56:41;;;;;;;11.07;10.07;;;15.50;99.90;;;;;;4993700;28;20761;-79
2021/09/14 00:59:08;;;;;;;9.50;8.70;;;15.50;99.90;;;;;;4993556;28;20555;-79
2021/09/14 01:01:35;;;;;;;12.00;10.20;;;15.50;99.90;;;;;;4993547;28;20470;-78
2021/09/14 01:04:05;;;;;;;13.00;11.20;;;15.50;99.90;;;;;;4993549;28;20475;-79
2021/09/14 01:06:32;;;;;;;10.73;9.73;;;15.50;99.90;;;;;;4994367;28;20565;-78
2021/09/14 01:09:01;;;;;;;12.73;10.20;;;15.40;99.90;;;;;;4997227;28;20522;-79
2021/09/14 01:11:28;;;;;;;11.73;10.60;;;15.40;99.90;;;;;;4997685;28;20496;-79
2021/09/14 01:14:02;;;;;;;10.63;9.68;;;15.40;99.90;;;;;;4998610;28;20492;-78
2021/09/14 01:16:31;;;;;;;10.85;9.95;;;15.30;99.90;;;;;;4999898;28;20673;-78
2021/09/14 01:18:59;;;;;;;11.33;10.30;;;15.30;99.90;;;;;;4993327;28;20758;-79
2021/09/14 01:21:28;;;;;;;11.37;10.37;;;15.30;99.90;;;;;;4993081;28;20434;-79
2021/09/14 01:23:57;;;;;;;9.73;8.73;;;15.30;99.90;;;;;;4993294;28;20437;-79
2021/09/14 01:26:24;;;;;;;12.43;10.70;;;15.30;99.90;;;;;;4993292;28;20876;-79
2021/09/14 01:28:52;;;;;;;10.50;9.60;;;15.30;99.90;;;;;;4992860;28;20466;-79
2021/09/14 01:31:19;;;;;;;10.97;9.60;;;15.30;99.90;;;;;;4993179;28;20490;-79
2021/09/14 01:33:49;;;;;;;11.03;9.83;;;15.30;99.90;;;;;;4994360;28;20523;-79
2021/09/14 01:36:16;;;;;;;10.43;9.43;;;15.30;99.90;;;;;;4993487;28;20474;-79
2021/09/14 01:38:43;;;;;;;11.70;10.50;;;15.20;99.90;;;;;;4993620;28;20261;-80
2021/09/14 01:41:12;;;;;;;13.18;10.48;;;15.20;99.90;;;;;;4994027;28;20559;-79
2021/09/14 01:43:40;;;;;;;11.47;10.33;;;15.20;99.90;;;;;;4994065;28;20300;-79
2021/09/14 01:46:07;;;;;;;10.93;9.87;;;15.30;99.90;;;;;;4993688;28;20455;-79
2021/09/14 01:48:35;;;;;;;11.53;10.33;;;15.30;99.90;;;;;;4994085;28;20438;-79
2021/09/14 01:51:01;;;;;;;11.07;10.00;;;15.30;99.90;;;;;;4993190;28;21007;-79
2021/09/14 01:53:28;;;;;;;12.23;11.00;;;15.30;99.90;;;;;;4993347;28;20431;-79
2021/09/14 01:55:59;;;;;;;12.23;11.03;;;15.30;99.90;;;;;;4992614;28;20523;-80
2021/09/14 01:58:27;;;;;;;12.73;11.43;;;15.20;99.90;;;;;;4993896;28;20454;-79
2021/09/14 02:01:00;;;;;;;11.90;10.90;;;15.20;99.90;;;;;;4994214;28;20426;-79
2021/09/14 02:03:40;;;;;;;11.60;10.60;;;15.20;99.90;;;;;;4998066;28;20429;-80
2021/09/14 02:09:17;;;;;;;12.90;11.60;;;15.10;99.90;;;;;;4993412;28;20178;-79
2021/09/14 02:39:33;;;;;;;8.63;7.80;;;15.20;99.90;;;;;;4995001;28;20420;-78
2021/09/14 02:42:19;;;;;;;9.40;8.30;;;15.20;99.90;;;;;;5003190;28;20509;-79
2021/09/14 02:56:06;;;;;;;9.07;8.30;;;15.30;99.90;;;;;;5004449;28;20817;-79
2021/09/14 02:56:24;;;;;;;9.67;8.70;;;15.20;99.90;;;;;;5011873;28;20396;-80
2021/09/14 02:58:50;;;;;;;9.63;8.73;;;15.20;99.90;;;;;;5005197;28;20898;-79
2021/09/14 03:01:18;;;;;;;9.90;8.87;;;15.20;99.90;;;;;;5005939;28;20483;-79
2021/09/14 03:03:48;;;;;;;10.00;9.10;;;15.20;99.90;;;;;;4998980;28;20432;-80
2021/09/14 03:06:15;;;;;;;10.60;8.43;;;15.20;99.90;;;;;;4999243;28;20482;-80
2021/09/14 03:08:43;;;;;;;9.10;8.40;;;15.20;99.90;;;;;;5006413;28;21004;-80
2021/09/14 03:11:11;;;;;;;13.30;9.97;;;15.20;99.90;;;;;;4997055;28;20488;-79
2021/09/14 03:13:39;;;;;;;9.82;8.85;;;15.10;99.90;;;;;;4996902;28;20462;-80
2021/09/14 03:16:07;;;;;;;18.75;10.32;;;15.00;99.90;;;;;;4997351;28;20709;-79
2021/09/14 03:18:34;;;;;;;10.77;9.68;;;15.00;99.90;;;;;;4998865;28;20716;-79
2021/09/14 03:21:03;;;;;;;10.38;9.23;;;15.00;99.90;;;;;;4995939;28;20614;-79
2021/09/14 03:23:31;;;;;;;10.00;9.20;;;15.00;99.90;;;;;;4997366;28;20217;-79
2021/09/14 03:25:58;;;;;;;10.30;9.23;;;15.00;99.90;;;;;;4996708;28;20529;-79
2021/09/14 03:28:25;;;;;;;10.00;9.00;;;15.00;99.90;;;;;;4996744;28;20644;-79
2021/09/14 03:30:52;;;;;;;10.73;9.20;;;15.00;99.90;;;;;;5003254;28;20467;-80
2021/09/14 03:33:20;;;;;;;9.70;8.70;;;15.00;99.90;;;;;;5004787;28;20440;-80
2021/09/14 03:35:47;;;;;;;10.02;8.45;;;15.00;99.90;;;;;;4998070;28;20308;-80
2021/09/14 03:38:15;;;;;;;9.18;8.07;;;15.00;99.90;;;;;;4997748;28;20263;-80
2021/09/14 03:40:42;;;;;;;9.38;7.28;;;14.90;99.90;;;;;;4996980;28;20211;-80
2021/09/14 03:43:10;;;;;;;8.33;7.60;;;14.90;99.90;;;;;;4999154;28;20341;-79
2021/09/14 03:45:36;;;;;;;9.50;7.57;;;14.90;99.90;;;;;;4996877;28;20455;-80
2021/09/14 03:48:04;;;;;;;11.77;9.40;;;15.00;99.90;;;;;;4996736;28;21084;-80
2021/09/14 03:50:30;;;;;;;9.20;8.30;;;15.00;99.90;;;;;;4997251;28;20512;-80
2021/09/14 03:52:57;;;;;;;9.15;8.25;;;15.00;99.90;;;;;;4996131;28;21059;-80
2021/09/14 03:55:25;;;;;;;8.23;7.53;;;15.00;99.90;;;;;;4997304;28;20309;-80
2021/09/14 03:57:52;;;;;;;8.50;7.70;;;15.00;99.90;;;;;;4995675;28;20542;-79
2021/09/14 04:00:20;;;;;;;9.57;7.70;;;14.90;99.90;;;;;;4995440;28;20960;-79
2021/09/14 04:02:49;;;;;;;8.83;8.00;;;14.90;99.90;;;;;;4995917;28;20793;-79
2021/09/14 04:05:29;;;;;;;8.93;8.13;;;14.90;99.90;;;;;;4998134;28;20462;-80
2021/09/14 04:08:50;;;;;;;8.38;7.68;;;14.90;99.90;;;;;;4998881;28;20229;-80
2021/09/14 04:10:56;;;;;;;10.80;8.10;;;15.00;99.90;;;;;;4998905;28;20209;-80
2021/09/14 04:13:23;;;;;;;10.33;9.30;;;14.90;99.90;;;;;;5000628;28;20537;-79
2021/09/14 04:15:50;;;;;;;10.00;9.20;;;14.80;99.90;;;;;;5007621;28;20468;-80
2021/09/14 04:18:17;;;;;;;9.98;8.90;;;14.70;99.90;;;;;;5010970;28;20464;-80
2021/09/14 04:20:44;;;;;;;8.80;7.90;;;14.70;99.90;;;;;;5000966;28;20204;-80
2021/09/14 04:23:11;;;;;;;9.50;8.50;;;14.60;99.90;;;;;;4998490;28;20466;-80
2021/09/14 04:25:38;;;;;;;8.95;8.15;;;14.60;99.90;;;;;;4995137;28;20483;-76
2021/09/14 04:28:07;;;;;;;9.60;8.73;;;14.60;99.90;;;;;;4996332;28;20320;-75
2021/09/14 04:30:33;;;;;;;11.30;9.47;;;14.60;99.90;;;;;;4996875;28;20348;-80
2021/09/14 04:33:00;;;;;;;9.50;7.75;;;14.60;99.90;;;;;;4995945;28;20558;-79
2021/09/14 04:35:27;;;;;;;8.47;7.70;;;14.60;99.90;;;;;;4997365;28;20256;-79
2021/09/14 04:37:54;;;;;;;9.73;8.73;;;14.70;99.90;;;;;;4995960;28;20869;-80
2021/09/14 04:40:21;;;;;;;9.20;8.30;;;14.70;99.90;;;;;;4996628;28;21027;-79
2021/09/14 04:42:48;;;;;;;11.27;9.65;;;14.80;99.90;;;;;;5003634;28;20280;-80
2021/09/14 04:45:16;;;;;;;9.87;8.60;;;14.80;99.90;;;;;;5017706;28;20189;-80
2021/09/14 04:47:43;;;;;;;8.53;7.73;;;14.80;99.90;;;;;;5018226;28;20479;-81
2021/09/14 04:50:12;;;;;;;8.97;8.07;;;14.80;99.90;;;;;;5017814;28;20472;-80
2021/09/14 04:52:39;;;;;;;10.23;7.65;;;14.90;99.90;;;;;;5001483;28;20485;-80
2021/09/14 04:55:07;;;;;;;8.85;7.95;;;14.90;99.90;;;;;;4994910;28;20695;-79
2021/09/14 04:57:34;;;;;;;8.50;7.70;;;15.00;99.90;;;;;;4995127;28;20663;-78
2021/09/14 05:00:01;;;;;;;9.13;8.13;;;15.00;99.90;;;;;;4996066;28;20461;-80
2021/09/14 05:02:29;;;;;;;8.13;7.30;;;14.90;99.90;;;;;;5003107;28;20301;-79
2021/09/14 05:04:58;;;;;;;9.63;8.27;;;14.90;99.90;;;;;;5004356;28;20209;-80
2021/09/14 05:07:24;;;;;;;7.40;6.80;;;14.90;99.90;;;;;;5004181;28;20490;-79
2021/09/14 05:09:51;;;;;;;9.32;8.43;;;14.90;99.90;;;;;;5007135;28;20500;-78
2021/09/14 05:12:19;;;;;;;11.50;8.03;;;14.90;99.90;;;;;;5011693;28;20256;-79
2021/09/14 05:14:46;;;;;;;14.07;8.30;;;14.90;99.90;;;;;;5004264;28;20461;-80
2021/09/14 05:17:13;;;;;;;9.35;8.45;;;14.90;99.90;;;;;;4998438;28;20477;-80
2021/09/14 05:19:43;;;;;;;10.17;8.60;;;14.90;99.90;;;;;;4997316;28;20257;-80
2021/09/14 05:22:12;;;;;;;9.93;8.93;;;15.00;99.90;;;;;;4997306;28;20482;-80
2021/09/14 05:24:39;;;;;;;9.20;8.40;;;15.00;99.90;;;;;;4997148;28;20210;-80
2021/09/14 05:27:06;;;;;;;9.43;8.50;;;15.10;99.90;;;;;;4998609;28;20481;-80
2021/09/14 05:29:33;;;;;;;8.53;7.40;;;15.30;99.90;;;;;;4997291;28;20500;-80
2021/09/14 05:32:10;;;;;;;7.77;7.07;;;15.40;99.90;;;;;;4996759;28;20524;-80
2021/09/14 05:34:37;;;;;;;8.70;7.60;;;15.40;99.90;;;;;;4998007;28;20948;-79
2021/09/14 05:37:07;;;;;;;9.10;7.80;;;15.30;99.90;;;;;;4996081;28;20226;-79
2021/09/14 05:39:34;;;;;;;8.83;7.43;;;15.40;99.90;;;;;;4996778;28;20826;-79
2021/09/14 05:42:01;;;;;;;8.83;7.63;;;15.50;99.90;;;;;;4995329;28;20489;-80
2021/09/14 05:44:28;;;;;;;8.10;7.40;;;15.70;99.90;;;;;;4996450;28;20526;-80
2021/09/14 05:46:55;;;;;;;8.10;7.33;;;15.90;99.90;;;;;;4998705;28;20496;-79
2021/09/14 05:49:22;;;;;;;11.40;8.03;;;16.10;99.90;;;;;;5002875;28;20490;-79
2021/09/14 05:51:49;;;;;;;12.27;8.57;;;16.20;99.90;;;;;;4998187;28;20485;-79
2021/09/14 05:54:17;;;;;;;7.93;6.97;;;16.20;99.90;;;;;;4997215;28;20776;-80
2021/09/14 05:56:44;;;;;;;12.83;7.43;;;16.30;99.90;;;;;;4998042;28;20476;-79
2021/09/14 05:59:12;;;;;;;10.63;7.93;;;16.30;99.90;;;;;;4996919;28;20466;-79
2021/09/14 06:01:38;;;;;;;8.27;7.20;;;16.40;99.90;;;;;;4995889;28;20475;-79
2021/09/14 06:04:05;;;;;;;18.40;6.50;;;16.50;99.90;;;;;;4995483;28;20444;-79
2021/09/14 06:06:32;;;;;;;8.70;7.77;;;16.50;99.90;;;;;;4996436;28;20528;-79
2021/09/14 06:08:59;;;;;;;7.50;6.90;;;16.60;99.80;;;;;;4996281;28;20543;-80
2021/09/14 06:11:28;;;;;;;7.73;7.03;;;16.70;99.40;;;;;;4994218;28;20480;-79
2021/09/14 06:13:55;;;;;;;7.53;6.83;;;16.70;99.00;;;;;;4997472;28;20480;-80
2021/09/14 06:16:22;;;;;;;11.20;9.00;;;16.80;99.40;;;;;;5000062;28;20458;-79
2021/09/14 06:18:49;;;;;;;9.20;8.40;;;16.90;98.20;;;;;;5001992;28;20490;-80
2021/09/14 06:21:22;;;;;;;9.40;8.60;;;16.80;97.70;;;;;;5003429;28;20509;-80
2021/09/14 06:23:49;;;;;;;9.53;8.67;;;16.80;97.50;;;;;;5002901;28;20546;-80
2021/09/14 06:26:16;;;;;;;9.00;8.20;;;16.90;98.10;;;;;;5000919;28;20972;-80
2021/09/14 06:28:45;;;;;;;9.70;8.20;;;17.00;97.80;;;;;;5000035;28;20425;-81
2021/09/14 06:31:13;;;;;;;13.13;9.70;;;17.10;97.20;;;;;;5000160;28;20513;-79
2021/09/14 06:33:40;;;;;;;10.10;9.03;;;17.20;96.40;;;;;;4998262;28;20551;-79
2021/09/14 06:36:07;;;;;;;10.23;9.23;;;17.30;96.00;;;;;;4998831;28;20479;-79
2021/09/14 06:38:34;;;;;;;8.87;8.07;;;17.40;95.40;;;;;;5000380;28;20443;-80
2021/09/14 06:41:01;;;;;;;9.30;8.30;;;17.50;94.40;;;;;;5004519;28;20430;-79
2021/09/14 06:43:28;;;;;;;10.27;9.13;;;17.60;94.30;;;;;;5004261;28;20463;-79
2021/09/14 06:46:05;;;;;;;10.43;9.43;;;17.70;93.30;;;;;;4999024;28;20435;-79
2021/09/14 06:48:34;;;;;;;12.90;10.33;;;17.60;93.60;;;;;;4998800;28;20434;-80
2021/09/14 06:51:01;;;;;;;11.57;10.40;;;17.60;94.10;;;;;;5003939;28;20437;-80
2021/09/14 06:53:31;;;;;;;11.13;9.97;;;17.60;94.00;;;;;;5009741;28;20450;-80
2021/09/14 06:56:01;;;;;;;10.60;9.50;;;17.80;94.20;;;;;;5012088;28;20455;-81
2021/09/14 06:58:28;;;;;;;11.40;10.27;;;17.90;93.50;;;;;;5019463;28;20460;-80
2021/09/14 07:01:02;;;;;;;12.40;11.10;;;18.10;92.80;;;;;;5020341;28;20490;-81
2021/09/14 07:03:41;;;;;;;12.83;11.17;;;18.20;92.30;;;;;;5019382;28;20420;-80
2021/09/14 07:06:15;;;;;;;12.40;11.20;;;18.30;91.20;;;;;;4999078;28;20475;-78
2021/09/14 07:08:42;;;;;;;11.27;10.13;;;18.50;91.10;;;;;;4998173;28;20457;-79
2021/09/14 07:11:11;;;;;;;13.17;10.10;;;18.60;90.10;;;;;;5002100;28;20463;-79
2021/09/14 07:13:55;;;;;;;11.97;10.97;;;18.70;88.30;;;;;;5005366;28;21045;-78
2021/09/14 07:16:27;;;;;;;12.40;11.10;;;18.80;86.70;;;;;;4999935;28;20594;-79
2021/09/14 07:18:59;;;;;;;12.00;10.90;;;18.80;86.60;;;;;;5002250;28;20460;-79
2021/09/14 07:21:26;;;;;;;12.00;10.80;;;18.90;85.70;;;;;;5001818;28;20457;-78
2021/09/14 07:23:53;;;;;;;13.20;11.47;;;19.00;84.50;;;;;;5001181;28;20459;-79
2021/09/14 07:26:20;;;;;;;13.00;11.83;;;19.10;84.60;;;;;;4997611;28;20511;-79
2021/09/14 07:28:47;;;;;;;14.00;11.73;;;19.20;83.40;;;;;;4995849;28;20460;-78
2021/09/14 07:31:15;;;;;;;14.60;11.50;;;19.20;82.90;;;;;;4999730;28;20957;-79
2021/09/14 07:33:43;;;;;;;11.77;10.57;;;19.40;82.30;;;;;;4998807;28;20741;-79
2021/09/14 07:36:10;;;;;;;13.53;12.13;;;19.50;81.40;;;;;;5000455;28;20484;-80
2021/09/14 07:38:39;;;;;;;12.63;11.43;;;19.70;79.10;;;;;;4998841;28;20488;-78
2021/09/14 07:41:07;;;;;;;14.00;11.40;;;19.70;78.40;;;;;;5001015;28;20431;-79
2021/09/14 07:43:34;;;;;;;13.20;11.20;;;19.80;79.00;;;;;;5006296;28;20436;-79
2021/09/14 07:46:00;;;;;;;12.10;10.90;;;19.80;78.30;;;;;;5011907;28;20461;-79
2021/09/14 07:48:28;;;;;;;13.60;12.27;;;19.70;77.20;;;;;;5010736;28;20467;-79
2021/09/14 07:50:57;;;;;;;12.37;11.17;;;19.70;77.30;;;;;;5011681;28;20519;-79
2021/09/14 07:53:24;;;;;;;12.63;11.30;;;19.80;77.90;;;;;;5010973;28;20458;-78
2021/09/14 07:55:51;;;;;;;13.10;11.83;;;19.90;77.00;;;;;;5006947;28;20447;-77
2021/09/14 07:58:17;;;;;;;13.70;11.27;;;20.00;76.70;;;;;;5005318;28;20494;-79
2021/09/14 08:00:45;;;;;;;13.03;11.73;;;20.20;77.60;;;;;;5007760;28;20453;-79
2021/09/14 08:03:12;;;;;;;14.70;13.07;;;20.40;75.40;;;;;;5005133;28;20526;-78
2021/09/14 08:05:40;;;;;;;14.27;12.87;;;20.40;74.50;;;;;;4996909;28;20431;-77
2021/09/14 08:08:08;;;;;;;14.40;13.00;;;20.50;74.90;;;;;;4999347;28;20479;-78
2021/09/14 08:10:36;;;;;;;14.10;12.60;;;20.50;74.70;;;;;;4997289;28;20941;-77
2021/09/14 08:13:03;;;;;;;14.10;12.80;;;20.60;74.10;;;;;;4998511;28;21058;-79
2021/09/14 08:15:30;;;;;;;13.10;11.97;;;20.60;74.30;;;;;;4999999;28;20894;-78
2021/09/14 08:17:59;;;;;;;13.80;12.47;;;20.60;74.00;;;;;;4997360;28;20572;-78
2021/09/14 08:20:26;;;;;;;16.27;12.93;;;20.70;72.90;;;;;;4998721;28;20438;-78
2021/09/14 08:22:53;;;;;;;14.17;12.67;;;20.60;72.60;;;;;;4999583;28;20468;-79
2021/09/14 08:25:21;;;;;;;13.67;12.30;;;20.80;72.50;;;;;;5002345;28;20493;-79
2021/09/14 08:27:48;;;;;;;13.20;10.80;;;21.00;71.70;;;;;;5007471;28;20494;-80
2021/09/14 08:30:15;;;;;;;11.73;10.43;;;21.30;70.30;;;;;;4999165;28;20518;-78
2021/09/14 08:32:42;;;;;;;11.90;10.70;;;21.60;69.30;;;;;;4996308;28;20522;-79
2021/09/14 08:35:09;;;;;;;11.23;10.10;;;21.60;68.80;;;;;;4996631;28;20988;-78
2021/09/14 08:37:36;;;;;;;10.87;9.80;;;21.70;67.90;;;;;;4995094;28;20481;-79
2021/09/14 08:40:04;;;;;;;10.90;9.37;;;22.00;65.80;;;;;;4997329;28;20513;-78
2021/09/14 08:42:35;;;;;;;12.70;11.27;;;22.00;65.70;;;;;;5000749;28;20491;-78
2021/09/14 08:45:20;;;;;;;9.93;9.03;;;22.10;64.50;;;;;;5017279;28;20443;-78
2021/09/14 08:47:48;;;;;;;9.50;8.60;;;22.30;63.60;;;;;;5016027;28;20457;-79
2021/09/14 08:50:15;;;;;;;11.67;8.00;;;22.60;61.40;;;;;;5006264;28;20451;-78
2021/09/14 08:52:42;;;;;;;9.60;8.80;;;22.80;61.10;;;;;;4999581;28;20904;-79
2021/09/14 08:55:10;;;;;;;9.80;8.50;;;22.90;61.20;;;;;;5002903;28;20474;-79
2021/09/14 08:57:39;;;;;;;9.70;8.80;;;23.00;59.60;;;;;;5009019;28;20495;-79
2021/09/14 09:00:07;;;;;;;10.30;9.30;;;23.00;59.60;;;;;;5010353;28;20509;-79
2021/09/14 09:02:34;;;;;;;9.37;8.47;;;22.90;59.50;;;;;;5010524;28;21006;-78
2021/09/14 09:05:02;;;;;;;10.10;9.20;;;23.00;60.00;;;;;;5006421;28;20447;-79
2021/09/14 09:07:33;;;;;;;9.90;8.60;;;23.00;59.50;;;;;;4995924;28;21070;-79
2021/09/14 09:10:11;;;;;;;9.50;8.50;;;22.90;59.30;;;;;;4994981;28;20445;-79
2021/09/14 09:12:44;;;;;;;9.57;8.77;;;23.00;59.40;;;;;;4994536;28;20433;-79
2021/09/14 09:15:22;;;;;;;9.93;7.47;;;23.10;58.90;;;;;;4995293;28;20462;-78
2021/09/14 09:18:00;;;;;;;10.00;9.10;;;23.20;58.20;;;;;;4994953;28;20502;-78
2021/09/14 09:20:27;;;;;;;9.77;8.10;;;23.20;58.10;;;;;;4995904;28;20463;-79
2021/09/14 09:23:00;;;;;;;8.50;7.80;;;23.10;58.60;;;;;;4997166;28;20482;-77
2021/09/14 09:25:27;;;;;;;8.40;7.60;;;23.30;58.00;;;;;;4998000;28;20510;-78
2021/09/14 09:28:05;;;;;;;8.77;7.97;;;23.30;57.30;;;;;;4994508;28;20498;-77
2021/09/14 09:30:36;;;;;;;9.33;8.33;;;23.10;58.50;;;;;;4995265;28;20472;-78
2021/09/14 09:33:03;;;;;;;9.57;8.67;;;23.20;57.80;;;;;;4995163;28;20469;-79
2021/09/14 09:35:33;;;;;;;8.67;7.77;;;23.20;57.90;;;;;;4994463;28;20463;-78
2021/09/14 09:38:01;;;;;;;9.10;8.20;;;23.20;58.20;;;;;;4995390;28;20456;-78
2021/09/14 09:40:30;;;;;;;9.47;8.40;;;23.30;57.80;;;;;;4994356;28;20552;-78
2021/09/14 09:43:00;;;;;;;8.63;7.73;;;23.40;58.10;;;;;;4995095;28;20479;-77
2021/09/14 09:45:28;;;;;;;12.20;7.83;;;23.50;56.90;;;;;;4996900;28;20469;-80
2021/09/14 09:47:55;;;;;;;8.80;8.00;;;23.70;55.80;;;;;;4998717;28;20475;-78
2021/09/14 09:50:23;;;;;;;10.40;7.90;;;23.50;56.60;;;;;;4997704;28;20452;-79
2021/09/14 09:52:50;;;;;;;8.20;7.40;;;23.70;56.30;;;;;;4999023;28;20456;-78
2021/09/14 09:55:18;;;;;;;8.27;7.47;;;23.80;55.10;;;;;;4995651;28;20869;-78
2021/09/14 09:57:47;;;;;;;10.07;7.47;;;23.90;54.70;;;;;;4995222;28;20477;-78
2021/09/14 10:00:16;;;;;;;7.90;7.20;;;24.10;54.30;;;;;;4994899;28;20985;-78
2021/09/14 10:02:48;;;;;;;9.20;8.20;;;24.20;54.10;;;;;;4996672;28;20509;-78
2021/09/14 10:05:17;;;;;;;9.07;7.70;;;24.30;54.20;;;;;;4996523;28;20513;-77
2021/09/14 10:07:46;;;;;;;9.93;8.17;;;24.50;53.10;;;;;;4996498;28;20461;-78
2021/09/14 10:10:13;;;;;;;8.00;7.30;;;24.50;53.10;;;;;;4997701;28;20598;-78
2021/09/14 10:12:40;;;;;;;7.33;6.67;;;24.60;53.20;;;;;;4999827;28;20495;-78
2021/09/14 10:15:09;;;;;;;10.10;7.07;;;24.80;53.30;;;;;;4998382;28;20995;-79
2021/09/14 10:17:52;;;;;;;7.50;6.80;;;25.00;52.90;;;;;;4999023;28;20457;-77
2021/09/14 10:20:21;;;;;;;10.27;7.60;;;25.30;51.20;;;;;;4997422;28;20464;-78
2021/09/14 10:23:05;;;;;;;8.97;7.33;;;25.30;50.80;;;;;;4994275;28;20933;-78
2021/09/14 10:25:32;;;;;;;9.07;6.63;;;25.10;51.40;;;;;;4997317;28;20491;-77
2021/09/14 10:28:08;;;;;;;7.90;7.13;;;25.10;49.80;;;;;;5006431;28;20449;-78
2021/09/14 10:30:36;;;;;;;7.93;7.10;;;25.00;50.10;;;;;;5016861;28;20447;-78
2021/09/14 10:33:06;;;;;;;7.03;6.37;;;24.80;50.30;;;;;;5013420;28;20411;-78
2021/09/14 10:35:35;;;;;;;7.30;6.60;;;24.80;50.60;;;;;;4994479;28;20824;-78
2021/09/14 10:38:07;;;;;;;8.23;6.90;;;24.80;50.40;;;;;;4994712;28;20879;-78
2021/09/14 10:40:42;;;;;;;9.63;5.77;;;24.80;49.90;;;;;;4994255;28;20464;-78
2021/09/14 10:43:09;;;;;;;7.40;6.70;;;24.90;50.10;;;;;;4994129;28;20501;-79
2021/09/14 10:45:43;;;;;;;6.40;5.80;;;25.10;49.20;;;;;;4993518;28;20445;-78
2021/09/14 10:48:23;;;;;;;7.33;6.60;;;25.30;49.50;;;;;;4993342;28;20488;-79
2021/09/14 10:51:13;;;;;;;6.53;5.70;;;25.40;49.00;;;;;;4996213;28;20462;-79
2021/09/14 10:53:40;;;;;;;7.47;6.63;;;25.50;48.60;;;;;;5011819;28;20489;-78
2021/09/14 10:56:11;;;;;;;7.00;6.30;;;25.60;47.60;;;;;;4994322;28;20482;-78
2021/09/14 10:58:43;;;;;;;6.50;5.90;;;25.80;47.40;;;;;;4993446;28;20533;-78
2021/09/14 11:01:10;;;;;;;7.03;6.20;;;25.90;46.50;;;;;;4993013;28;20459;-79
2021/09/14 11:03:38;;;;;;;9.63;7.00;;;25.90;46.50;;;;;;4998960;28;20523;-79
2021/09/14 11:06:08;;;;;;;8.07;6.60;;;25.90;46.60;;;;;;4997197;28;20870;-78
2021/09/14 11:08:35;;;;;;;7.73;6.80;;;25.80;46.50;;;;;;4996059;28;20463;-78
2021/09/14 11:11:03;;;;;;;8.70;6.90;;;25.60;47.50;;;;;;4996846;28;20451;-78
2021/09/14 11:13:31;;;;;;;10.93;6.27;;;25.80;46.00;;;;;;5002233;28;20582;-79
2021/09/14 11:16:00;;;;;;;6.60;6.00;;;26.00;46.40;;;;;;5001512;28;20563;-79
2021/09/14 11:18:29;;;;;;;6.97;6.30;;;26.10;46.00;;;;;;5000603;28;20461;-78
2021/09/14 11:21:03;;;;;;;6.63;6.13;;;25.90;46.80;;;;;;4996097;28;20875;-78
2021/09/14 11:23:31;;;;;;;7.20;6.60;;;25.70;47.10;;;;;;4996032;28;20569;-78
2021/09/14 11:25:58;;;;;;;7.20;6.47;;;25.60;47.70;;;;;;4997326;28;20521;-77
2021/09/14 11:28:25;;;;;;;6.73;6.00;;;25.50;47.90;;;;;;4997572;28;20524;-78
2021/09/14 11:30:57;;;;;;;8.03;6.30;;;25.50;48.40;;;;;;4997348;28;20477;-78
2021/09/14 11:33:26;;;;;;;9.03;5.97;;;25.70;47.50;;;;;;5001304;28;20927;-77
2021/09/14 11:35:55;;;;;;;11.83;6.50;;;25.70;46.30;;;;;;5001286;28;20463;-78
2021/09/14 11:38:25;;;;;;;6.73;5.83;;;25.70;46.60;;;;;;4998023;28;20463;-78
2021/09/14 11:40:53;;;;;;;6.60;5.87;;;25.70;47.00;;;;;;5002852;28;20447;-79
2021/09/14 11:43:22;;;;;;;8.10;6.73;;;25.80;46.60;;;;;;5001136;28;20749;-78
2021/09/14 11:45:49;;;;;;;7.17;6.20;;;25.80;46.20;;;;;;4997058;28;20488;-78
2021/09/14 11:48:20;;;;;;;7.40;6.70;;;25.70;46.50;;;;;;4998455;28;20442;-78
2021/09/14 11:50:47;;;;;;;8.00;6.00;;;25.90;46.90;;;;;;4996486;28;20445;-78
2021/09/14 11:53:16;;;;;;;7.47;5.80;;;25.90;46.50;;;;;;4995584;28;20563;-78
2021/09/14 11:55:45;;;;;;;7.33;6.17;;;26.10;45.80;;;;;;4997416;28;20811;-78
2021/09/14 11:58:13;;;;;;;6.53;5.53;;;26.30;44.50;;;;;;4999042;28;20483;-79
2021/09/14 12:00:42;;;;;;;7.90;6.73;;;26.30;44.40;;;;;;4996364;28;20479;-79
2021/09/14 12:03:10;;;;;;;6.27;5.67;;;25.90;45.80;;;;;;4995807;28;20445;-78
2021/09/14 12:05:37;;;;;;;7.60;5.63;;;25.70;47.30;;;;;;4996160;28;20456;-78
2021/09/14 12:08:10;;;;;;;6.40;5.80;;;26.10;45.70;;;;;;4995068;28;20446;-78
2021/09/14 12:10:46;;;;;;;6.47;5.87;;;26.50;44.50;;;;;;4994936;28;20452;-78
2021/09/14 12:13:18;;;;;;;5.97;5.47;;;26.80;44.70;;;;;;4994649;28;20465;-79
2021/09/14 12:15:46;;;;;;;6.73;6.17;;;26.90;44.00;;;;;;4994894;28;20474;-79
2021/09/14 12:18:15;;;;;;;6.10;5.60;;;26.80;44.70;;;;;;4995823;28;20444;-79
2021/09/14 12:20:43;;;;;;;10.63;6.00;;;27.30;43.20;;;;;;4995076;28;20498;-78
2021/09/14 12:23:10;;;;;;;6.30;5.70;;;27.20;44.70;;;;;;4995970;28;20581;-78
2021/09/14 12:25:39;;;;;;;7.23;6.40;;;27.60;42.80;;;;;;4996458;28;20456;-78
2021/09/14 12:28:07;;;;;;;6.90;6.20;;;28.00;40.70;;;;;;4999090;28;20883;-79
2021/09/14 12:30:35;;;;;;;12.17;6.30;;;28.30;39.70;;;;;;4999784;28;20519;-78
2021/09/14 12:33:02;;;;;;;9.63;5.60;;;28.30;39.20;;;;;;4997346;28;20487;-79
2021/09/14 12:35:29;;;;;;;7.20;5.43;;;28.20;38.90;;;;;;4998357;28;20491;-78
2021/09/14 12:37:56;;;;;;;7.00;5.43;;;28.00;39.10;;;;;;4994898;28;20483;-78
2021/09/14 12:40:23;;;;;;;6.00;5.40;;;27.90;39.60;;;;;;4994297;28;20554;-79
2021/09/14 12:42:50;;;;;;;6.60;5.77;;;27.80;39.50;;;;;;4996345;28;20509;-78
2021/09/14 12:45:18;;;;;;;5.77;5.27;;;27.50;40.10;;;;;;4994746;28;20443;-80
2021/09/14 12:47:45;;;;;;;5.90;5.30;;;27.40;40.70;;;;;;4994862;28;20586;-79
2021/09/14 12:50:13;;;;;;;5.93;5.40;;;27.20;40.90;;;;;;4997771;28;20478;-80
2021/09/14 12:52:40;;;;;;;5.67;5.17;;;27.00;40.80;;;;;;4995713;28;20434;-79
2021/09/14 12:55:08;;;;;;;6.10;5.60;;;26.90;41.20;;;;;;4994405;28;21025;-80
2021/09/14 12:57:36;;;;;;;5.87;5.30;;;26.90;40.90;;;;;;4995046;28;20826;-79
2021/09/14 13:00:03;;;;;;;6.50;5.37;;;27.00;40.60;;;;;;4995616;28;20494;-78
2021/09/14 13:02:31;;;;;;;6.70;5.43;;;27.00;41.00;;;;;;5011214;28;20455;-79
2021/09/14 13:04:58;;;;;;;5.80;5.10;;;27.10;40.40;;;;;;4996378;28;20426;-78
2021/09/14 13:07:25;;;;;;;5.23;4.83;;;27.10;40.80;;;;;;4994115;28;20504;-78
2021/09/14 13:09:52;;;;;;;7.37;6.20;;;27.00;41.50;;;;;;4994320;28;20891;-79
2021/09/14 13:12:22;;;;;;;5.67;5.17;;;27.10;40.70;;;;;;4994921;28;20469;-78
2021/09/14 13:17:35;;;;;;;6.17;5.67;;;27.30;40.20;;;;;;4994461;28;20533;-78
2021/09/14 13:20:01;;;;;;;8.20;5.63;;;27.50;39.60;;;;;;4993827;28;20882;-75
2021/09/14 13:22:28;;;;;;;5.37;4.97;;;27.60;39.80;;;;;;4993819;28;20431;-78
2021/09/14 13:24:56;;;;;;;6.30;5.00;;;27.80;40.10;;;;;;4993487;28;20534;-78
2021/09/14 13:27:23;;;;;;;5.63;4.90;;;28.10;39.20;;;;;;4992517;28;20981;-77
2021/09/14 13:29:50;;;;;;;7.80;5.57;;;28.30;38.10;;;;;;4993456;28;20430;-79